Terminal Aerodrome Forecast
Issued by NWS

Home | Current Version | Previous Version | Graphics & Text | Print | Product List | Glossary On
Versions: 1 2 3 4 5 6 7 8 9 10 11 12 13 14 15 16 17 18 19 20 21 22 23
000
FTUS43 KICT 142057 AAA
TAFHUT
TAF AMD
KHUT 142057Z 1421/1518 01005KT 2SM -FZRA OVC025
     FM150500 04004KT 2SM FZRA OVC003=

USA.gov is the U.S. government's official web portal to all federal, state and local government web resources and services.